createdAt,value
2018-09-08T00:00:46.594Z,489.70
2018-09-08T00:01:46.634Z,454.60
2018-09-08T00:02:46.990Z,466.50
2018-09-08T00:03:46.735Z,459.40
2018-09-08T00:04:46.786Z,455.80
2018-09-08T00:05:46.807Z,477.40
2018-09-08T00:06:46.844Z,473.70
2018-09-08T00:07:46.925Z,472.80
2018-09-08T00:08:46.947Z,482.40
2018-09-08T00:09:47.313Z,506.60
2018-09-08T00:10:47.035Z,500.50
2018-09-08T00:11:47.109Z,480.20
2018-09-08T00:12:47.094Z,499.40
2018-09-08T00:13:47.151Z,488.30
2018-09-08T00:14:47.182Z,500.80
2018-09-08T00:15:47.536Z,491.90
2018-09-08T00:16:47.286Z,494.60
2018-09-08T00:17:47.324Z,508.90
2018-09-08T00:18:47.372Z,515.30
2018-09-08T00:19:47.406Z,520.40
2018-09-08T00:20:47.462Z,531.90
2018-09-08T00:21:47.801Z,551.30
2018-09-08T00:22:47.829Z,548.10
2018-09-08T00:23:47.579Z,555.40
2018-09-08T00:24:47.644Z,557.70
2018-09-08T00:25:47.677Z,588.60
2018-09-08T00:26:47.714Z,583.40
2018-09-08T00:27:47.744Z,606.20
2018-09-08T00:28:47.797Z,554.10
2018-09-08T00:29:47.817Z,587.80
2018-09-08T00:30:47.881Z,588.20
2018-09-08T00:31:47.943Z,557.00
2018-09-08T00:32:47.946Z,594.00
2018-09-08T00:33:47.993Z,553.50
2018-09-08T00:34:48.093Z,575.20
2018-09-08T00:35:48.094Z,569.50
2018-09-08T00:36:48.174Z,589.80
2018-09-08T00:37:48.186Z,631.00
2018-09-08T00:38:48.274Z,581.80
2018-09-08T00:39:48.251Z,625.60
2018-09-08T00:40:48.286Z,626.10
2018-09-08T00:41:48.349Z,597.90
2018-09-08T00:42:48.410Z,616.10
2018-09-08T00:43:48.727Z,621.40
2018-09-08T00:44:48.492Z,606.50
2018-09-08T00:45:48.582Z,628.50
2018-09-08T00:46:48.553Z,619.30
2018-09-08T00:47:48.607Z,622.70
2018-09-08T00:48:48.646Z,604.30
2018-09-08T00:49:48.703Z,604.70
2018-09-08T00:50:48.769Z,624.50
2018-09-08T00:51:48.789Z,588.10
2018-09-08T00:52:48.804Z,587.10
2018-09-08T00:53:49.161Z,555.60
2018-09-08T00:54:48.916Z,571.40
2018-09-08T00:55:48.920Z,577.00
2018-09-08T00:56:48.985Z,588.90
2018-09-08T00:57:49.063Z,592.30
2018-09-08T00:58:49.078Z,580.00
2018-09-08T00:59:49.126Z,591.00
2018-09-08T01:00:49.476Z,605.80
2018-09-08T01:01:49.213Z,606.20
2018-09-08T01:02:49.259Z,609.80
2018-09-08T01:03:49.406Z,616.80
2018-09-08T01:04:49.327Z,569.80
2018-09-08T01:05:49.373Z,583.20
2018-09-08T01:06:49.401Z,604.50
2018-09-08T01:07:49.454Z,583.10
2018-09-08T01:08:49.543Z,590.80
2018-09-08T01:09:49.549Z,603.10
2018-09-08T01:10:49.551Z,586.90
2018-09-08T01:11:49.633Z,593.50
2018-09-08T01:12:49.664Z,586.80
2018-09-08T01:13:49.690Z,597.90
2018-09-08T01:14:49.740Z,573.10
2018-09-08T01:15:50.091Z,588.30
2018-09-08T01:16:49.810Z,592.70
2018-09-08T01:17:49.877Z,585.10
2018-09-08T01:18:49.932Z,560.80
2018-09-08T01:19:49.948Z,571.50
2018-09-08T01:20:49.991Z,589.40
2018-09-08T01:21:50.079Z,583.80
2018-09-08T01:22:50.138Z,592.80
2018-09-08T01:23:50.117Z,546.40
2018-09-08T01:24:50.171Z,575.20
2018-09-08T01:25:50.489Z,590.60
2018-09-08T01:26:50.290Z,567.80
2018-09-08T01:27:55.336Z,581.20
2018-09-08T01:28:50.311Z,544.00
2018-09-08T01:29:50.374Z,553.30
2018-09-08T01:30:50.419Z,543.80
2018-09-08T01:31:50.449Z,541.80
2018-09-08T01:32:50.485Z,556.50
2018-09-08T01:33:50.518Z,535.70
2018-09-08T01:34:50.574Z,542.40
2018-09-08T01:35:50.910Z,555.00
2018-09-08T01:36:50.681Z,568.10
2018-09-08T01:37:50.726Z,583.60
2018-09-08T01:38:50.747Z,545.20
2018-09-08T01:39:50.812Z,550.60
2018-09-08T01:40:50.853Z,561.60
2018-09-08T01:41:50.867Z,561.60
2018-09-08T01:42:50.913Z,572.70
2018-09-08T01:43:50.979Z,559.60
2018-09-08T01:44:50.979Z,567.10
2018-09-08T01:45:51.043Z,581.00
2018-09-08T01:46:51.383Z,558.10
2018-09-08T01:47:51.137Z,581.40
2018-09-08T01:48:51.171Z,599.20
2018-09-08T01:49:51.201Z,571.50
2018-09-08T01:50:51.252Z,564.90
2018-09-08T01:51:51.289Z,579.60
2018-09-08T01:52:51.636Z,581.90
2018-09-08T01:53:51.408Z,576.30
2018-09-08T01:54:51.426Z,585.90
2018-09-08T01:55:51.456Z,569.10
2018-09-08T01:56:51.500Z,574.10
2018-09-08T01:57:51.542Z,566.20
2018-09-08T01:58:51.892Z,606.30
2018-09-08T01:59:51.634Z,573.10
2018-09-08T02:00:51.672Z,583.50
2018-09-08T02:01:51.690Z,586.50
2018-09-08T02:02:51.748Z,580.70
2018-09-08T02:03:51.826Z,577.20
2018-09-08T02:04:51.873Z,583.00
2018-09-08T02:05:51.876Z,562.70
2018-09-08T02:06:51.915Z,583.20
2018-09-08T02:07:51.957Z,571.00
2018-09-08T02:08:52.282Z,565.50
2018-09-08T02:09:52.043Z,586.90
2018-09-08T02:10:52.061Z,582.20
2018-09-08T02:11:52.168Z,579.60
2018-09-08T02:12:52.172Z,596.10
2018-09-08T02:13:52.173Z,582.60
2018-09-08T02:14:52.521Z,590.30
2018-09-08T02:15:52.261Z,582.30
2018-09-08T02:16:52.322Z,581.20
2018-09-08T02:17:52.373Z,579.90
2018-09-08T02:18:52.399Z,596.60
2018-09-08T02:19:52.499Z,573.30
2018-09-08T02:20:52.525Z,587.60
2018-09-08T02:21:52.527Z,592.60
2018-09-08T02:22:52.565Z,589.90
2018-09-08T02:23:52.651Z,597.60
2018-09-08T02:24:52.646Z,579.30
2018-09-08T02:25:52.999Z,577.70
2018-09-08T02:26:52.725Z,592.70
2018-09-08T02:27:52.762Z,569.50
2018-09-08T02:28:52.803Z,552.10
2018-09-08T02:29:52.864Z,566.70
2018-09-08T02:30:52.894Z,567.40
2018-09-08T02:31:52.957Z,563.50
2018-09-08T02:32:52.996Z,545.40
2018-09-08T02:33:53.016Z,534.30
2018-09-08T02:34:53.049Z,542.70
2018-09-08T02:35:53.089Z,554.00
2018-09-08T02:36:53.151Z,562.90
2018-09-08T02:37:53.429Z,537.50
2018-09-08T02:38:53.219Z,535.30
2018-09-08T02:39:53.264Z,558.20
2018-09-08T02:40:53.302Z,556.00
2018-09-08T02:41:53.357Z,565.40
2018-09-08T02:42:53.398Z,531.60
2018-09-08T02:43:53.704Z,537.30
2018-09-08T02:44:53.493Z,538.40
2018-09-08T02:45:53.524Z,521.80
2018-09-08T02:46:53.574Z,539.80
2018-09-08T02:47:53.602Z,501.60
2018-09-08T02:48:53.640Z,512.80
2018-09-08T02:49:53.697Z,520.90
2018-09-08T02:50:53.742Z,509.10
2018-09-08T02:51:53.779Z,489.10
2018-09-08T02:52:53.810Z,479.60
2018-09-08T02:53:54.112Z,480.10
2018-09-08T02:54:53.894Z,493.80
2018-09-08T02:55:53.932Z,475.00
2018-09-08T02:56:53.979Z,480.90
2018-09-08T02:57:54.003Z,467.80
2018-09-08T02:58:54.340Z,474.10
2018-09-08T02:59:54.101Z,458.80
2018-09-08T03:00:54.141Z,483.90
2018-09-08T03:01:54.190Z,505.30
2018-09-08T03:02:54.229Z,494.60
2018-09-08T03:03:54.513Z,478.60
2018-09-08T03:04:54.318Z,516.60
2018-09-08T03:05:54.346Z,495.20
2018-09-08T03:06:54.408Z,491.70
2018-09-08T03:07:54.491Z,482.10
2018-09-08T03:08:54.625Z,482.80
2018-09-08T03:09:54.505Z,495.30
2018-09-08T03:10:54.590Z,489.50
2018-09-08T03:11:54.599Z,471.90
2018-09-08T03:12:54.664Z,462.90
2018-09-08T03:13:54.983Z,455.50
2018-09-08T03:14:54.776Z,457.10
2018-09-08T03:15:54.763Z,436.20
2018-09-08T03:16:54.824Z,420.30
2018-09-08T03:17:54.871Z,469.10
2018-09-08T03:18:54.894Z,455.60
2018-09-08T03:19:54.955Z,470.00
2018-09-08T03:20:55.016Z,451.60
2018-09-08T03:21:55.011Z,464.60
2018-09-08T03:22:55.096Z,457.20
2018-09-08T03:23:55.359Z,455.70
2018-09-08T03:24:55.153Z,447.40
2018-09-08T03:25:55.168Z,452.80
2018-09-08T03:26:55.217Z,460.20
2018-09-08T03:27:55.259Z,471.90
2018-09-08T03:28:55.302Z,474.90
2018-09-08T03:29:55.399Z,459.40
2018-09-08T03:30:55.399Z,432.10
2018-09-08T03:31:55.477Z,445.60
2018-09-08T03:32:55.466Z,453.70
2018-09-08T03:33:55.548Z,434.00
2018-09-08T03:34:55.911Z,433.60
2018-09-08T03:35:55.584Z,426.50
2018-09-08T03:36:55.660Z,458.40
2018-09-08T03:37:55.712Z,443.80
2018-09-08T03:38:55.729Z,439.90
2018-09-08T03:39:55.770Z,451.10
2018-09-08T03:40:55.820Z,433.90
2018-09-08T03:41:55.892Z,431.30
2018-09-08T03:42:55.890Z,437.40
2018-09-08T03:43:55.940Z,433.00
2018-09-08T03:44:55.973Z,439.20
2018-09-08T03:45:56.016Z,425.10
2018-09-08T03:46:56.068Z,413.40
2018-09-08T03:47:56.104Z,445.10
2018-09-08T03:48:56.137Z,443.30
2018-09-08T03:49:56.169Z,441.20
2018-09-08T03:50:56.765Z,437.30
2018-09-08T03:51:56.273Z,431.50
2018-09-08T03:52:56.309Z,429.20
2018-09-08T03:53:56.385Z,444.10
2018-09-08T03:54:56.388Z,441.40
2018-09-08T03:55:56.427Z,427.30
2018-09-08T03:56:56.465Z,425.40
2018-09-08T03:57:56.520Z,432.80
2018-09-08T03:58:56.586Z,427.60
2018-09-08T03:59:56.633Z,421.60
2018-09-08T04:00:56.625Z,441.60
2018-09-08T04:01:56.911Z,424.70
2018-09-08T04:02:56.713Z,433.00
2018-09-08T04:03:56.783Z,424.20
2018-09-08T04:04:56.845Z,449.40
2018-09-08T04:05:56.838Z,415.20
2018-09-08T04:06:56.925Z,430.20
2018-09-08T04:07:56.919Z,430.90
2018-09-08T04:08:57.020Z,428.00
2018-09-08T04:09:57.015Z,436.00
2018-09-08T04:10:57.055Z,424.60
2018-09-08T04:11:57.074Z,437.40
2018-09-08T04:12:57.140Z,421.00
2018-09-08T04:13:57.407Z,427.30
2018-09-08T04:14:57.205Z,408.60
2018-09-08T04:15:57.297Z,412.00
2018-09-08T04:16:57.290Z,408.60
2018-09-08T04:17:57.392Z,401.00
2018-09-08T04:18:57.397Z,394.70
2018-09-08T04:19:57.536Z,387.40
2018-09-08T04:20:57.478Z,391.10
2018-09-08T04:21:57.501Z,404.30
2018-09-08T04:22:57.547Z,437.00
2018-09-08T04:23:57.601Z,441.80
2018-09-08T04:24:57.896Z,434.80
2018-09-08T04:25:57.720Z,409.30
2018-09-08T04:26:57.725Z,434.30
2018-09-08T04:27:57.756Z,423.90
2018-09-08T04:28:57.807Z,423.10
2018-09-08T04:29:57.833Z,428.40
2018-09-08T04:30:57.891Z,409.40
2018-09-08T04:31:58.246Z,430.20
2018-09-08T04:32:58.020Z,426.60
2018-09-08T04:33:58.012Z,436.00
2018-09-08T04:34:58.047Z,413.60
2018-09-08T04:35:58.098Z,436.50
2018-09-08T04:36:58.138Z,434.50
2018-09-08T04:37:58.417Z,441.40
2018-09-08T04:38:58.223Z,433.90
2018-09-08T04:39:58.257Z,454.10
2018-09-08T04:40:58.337Z,437.80
2018-09-08T04:41:58.372Z,424.80
2018-09-08T04:42:58.386Z,432.10
2018-09-08T04:43:58.438Z,441.30
2018-09-08T04:44:58.453Z,434.40
2018-09-08T04:45:58.504Z,451.70
2018-09-08T04:46:58.560Z,440.10
2018-09-08T04:47:58.894Z,463.50
2018-09-08T04:48:58.633Z,442.70
2018-09-08T04:49:58.660Z,443.60
2018-09-08T04:50:58.700Z,460.40
2018-09-08T04:51:58.770Z,439.00
2018-09-08T04:52:58.809Z,450.80
2018-09-08T04:53:59.094Z,431.20
2018-09-08T04:54:58.890Z,451.00
2018-09-08T04:55:58.914Z,460.20
2018-09-08T04:56:58.993Z,464.60
2018-09-08T04:57:59.001Z,456.90
2018-09-08T04:58:59.054Z,451.00
2018-09-08T04:59:59.100Z,439.80
2018-09-08T05:00:59.208Z,452.20
2018-09-08T05:01:59.179Z,425.50
2018-09-08T05:02:59.221Z,446.10
2018-09-08T05:03:59.254Z,456.20
2018-09-08T05:04:59.334Z,445.60
2018-09-08T05:05:59.599Z,451.70
2018-09-08T05:06:59.363Z,450.50
2018-09-08T05:07:59.400Z,445.10
2018-09-08T05:08:59.472Z,457.20
2018-09-08T05:09:59.511Z,448.90
2018-09-08T05:10:59.547Z,465.40
2018-09-08T05:11:59.581Z,433.80
2018-09-08T05:12:59.640Z,457.40
2018-09-08T05:13:59.673Z,471.20
2018-09-08T05:14:59.712Z,454.20
2018-09-08T05:15:59.761Z,485.50
2018-09-08T05:16:59.791Z,451.60
2018-09-08T05:18:00.181Z,468.30
2018-09-08T05:18:59.970Z,502.80
2018-09-08T05:19:59.925Z,509.50
2018-09-08T05:20:59.941Z,541.50
2018-09-08T05:22:00.009Z,551.20
2018-09-08T05:23:00.044Z,561.20
2018-09-08T05:24:00.070Z,557.90
2018-09-08T05:25:00.111Z,574.40
2018-09-08T05:26:00.176Z,576.00
2018-09-08T05:27:00.213Z,578.70
2018-09-08T05:28:00.277Z,604.30
2018-09-08T05:29:00.588Z,589.00
2018-09-08T05:30:00.410Z,581.90
2018-09-08T05:31:00.361Z,576.10
2018-09-08T05:32:00.390Z,577.80
2018-09-08T05:33:00.443Z,600.50
2018-09-08T05:34:00.486Z,608.90
2018-09-08T05:35:00.551Z,612.70
2018-09-08T05:36:00.569Z,597.60
2018-09-08T05:37:00.622Z,611.70
2018-09-08T05:38:00.668Z,597.70
2018-09-08T05:39:00.698Z,614.10
2018-09-08T05:40:00.981Z,622.90
2018-09-08T05:41:00.786Z,588.50
2018-09-08T05:42:00.811Z,590.10
2018-09-08T05:43:00.901Z,612.10
2018-09-08T05:44:00.907Z,585.70
2018-09-08T05:45:00.972Z,574.40
2018-09-08T05:46:01.113Z,591.90
2018-09-08T05:47:01.040Z,578.10
2018-09-08T05:48:01.093Z,645.60
2018-09-08T05:49:01.103Z,639.80
2018-09-08T05:50:01.151Z,636.30
2018-09-08T05:51:01.491Z,633.00
2018-09-08T05:52:01.257Z,615.40
2018-09-08T05:53:01.279Z,608.70
2018-09-08T05:54:01.319Z,596.40
2018-09-08T05:55:01.370Z,600.20
2018-09-08T05:56:01.384Z,590.30
2018-09-08T05:57:01.567Z,611.70
2018-09-08T05:58:01.514Z,604.60
2018-09-08T05:59:01.532Z,605.90
2018-09-08T06:00:01.585Z,610.10
2018-09-08T06:01:01.584Z,602.40
2018-09-08T06:02:01.663Z,611.30
2018-09-08T06:03:01.948Z,626.80
2018-09-08T06:04:01.715Z,623.60
2018-09-08T06:05:01.778Z,622.00
2018-09-08T06:06:01.807Z,624.60
2018-09-08T06:07:01.851Z,583.90
2018-09-08T06:08:01.890Z,574.50
2018-09-08T06:09:02.047Z,559.10
2018-09-08T06:10:02.028Z,560.10
2018-09-08T06:11:02.012Z,543.10
2018-09-08T06:12:02.059Z,551.10
2018-09-08T06:13:02.111Z,542.10
2018-09-08T06:14:02.131Z,519.10
2018-09-08T06:15:02.175Z,524.80
2018-09-08T06:16:02.228Z,515.40
2018-09-08T06:17:02.247Z,512.30
2018-09-08T06:18:02.294Z,522.00
2018-09-08T06:19:02.663Z,517.50
2018-09-08T06:20:02.406Z,514.70
2018-09-08T06:21:02.423Z,519.10
2018-09-08T06:22:02.468Z,512.20
2018-09-08T06:23:02.527Z,538.30
2018-09-08T06:24:02.558Z,532.20
2018-09-08T06:25:02.603Z,510.80
2018-09-08T06:26:02.639Z,520.50
2018-09-08T06:27:02.679Z,516.70
2018-09-08T06:28:02.709Z,500.10
2018-09-08T06:29:03.056Z,522.40
2018-09-08T06:30:02.815Z,507.40
2018-09-08T06:31:02.837Z,534.70
2018-09-08T06:32:02.878Z,505.50
2018-09-08T06:33:02.931Z,526.90
2018-09-08T06:34:02.975Z,521.80
2018-09-08T06:35:03.048Z,523.30
2018-09-08T06:36:03.033Z,534.10
2018-09-08T06:37:03.079Z,542.50
2018-09-08T06:38:03.135Z,542.50
2018-09-08T06:39:03.166Z,548.90
2018-09-08T06:40:03.467Z,566.20
2018-09-08T06:41:03.239Z,567.00
2018-09-08T06:42:03.293Z,552.50
2018-09-08T06:43:03.329Z,576.80
2018-09-08T06:44:03.358Z,563.90
2018-09-08T06:45:03.609Z,553.70
2018-09-08T06:46:03.559Z,571.50
2018-09-08T06:47:03.496Z,622.40
2018-09-08T06:48:03.542Z,627.70
2018-09-08T06:49:03.577Z,622.80
2018-09-08T06:50:03.627Z,609.20
2018-09-08T06:51:03.661Z,625.80
2018-09-08T06:52:04.024Z,624.10
2018-09-08T06:53:03.744Z,613.10
2018-09-08T06:54:03.831Z,638.80
2018-09-08T06:55:03.815Z,614.90
2018-09-08T06:56:03.874Z,612.30
2018-09-08T06:57:03.934Z,608.00
2018-09-08T06:58:04.140Z,605.30
2018-09-08T06:59:03.973Z,609.20
2018-09-08T07:00:04.040Z,601.70
2018-09-08T07:01:04.052Z,590.20
2018-09-08T07:02:04.104Z,573.20
2018-09-08T07:03:04.135Z,584.90
2018-09-08T07:04:04.486Z,574.40
2018-09-08T07:05:04.274Z,571.20
2018-09-08T07:06:04.270Z,575.40
2018-09-08T07:07:04.364Z,578.80
2018-09-08T07:08:04.350Z,579.40
2018-09-08T07:09:04.391Z,581.60
2018-09-08T07:10:04.451Z,571.20
2018-09-08T07:11:04.583Z,533.60
2018-09-08T07:12:04.519Z,574.80
2018-09-08T07:13:04.603Z,534.40
2018-09-08T07:14:04.598Z,569.00
2018-09-08T07:15:04.664Z,554.80
2018-09-08T07:16:04.929Z,557.90
2018-09-08T07:17:04.719Z,539.40
2018-09-08T07:18:04.745Z,548.90
2018-09-08T07:19:04.807Z,549.10
2018-09-08T07:20:04.847Z,570.10
2018-09-08T07:21:04.873Z,565.30
2018-09-08T07:22:05.071Z,552.90
2018-09-08T07:23:04.973Z,564.10
2018-09-08T07:24:04.998Z,564.40
2018-09-08T07:25:05.058Z,572.20
2018-09-08T07:26:05.064Z,584.30
2018-09-08T07:27:05.107Z,570.40
2018-09-08T07:28:05.162Z,576.80
2018-09-08T07:29:05.211Z,586.90
2018-09-08T07:30:05.236Z,577.70
2018-09-08T07:31:05.332Z,576.70
2018-09-08T07:32:05.629Z,570.50
2018-09-08T07:33:05.382Z,603.20
2018-09-08T07:34:05.415Z,591.40
2018-09-08T07:35:05.468Z,583.80
2018-09-08T07:36:05.494Z,575.60
2018-09-08T07:37:05.504Z,596.20
2018-09-08T07:38:05.561Z,612.60
2018-09-08T07:39:05.614Z,571.20
2018-09-08T07:40:05.655Z,594.50
2018-09-08T07:41:05.706Z,592.90
2018-09-08T07:42:05.831Z,614.10
2018-09-08T07:43:05.783Z,608.30
2018-09-08T07:44:05.818Z,598.50
2018-09-08T07:45:05.840Z,628.00
2018-09-08T07:46:05.922Z,625.90
2018-09-08T07:47:06.222Z,605.40
2018-09-08T07:48:05.977Z,604.30
2018-09-08T07:49:06.016Z,614.30
2018-09-08T07:50:06.047Z,610.40
2018-09-08T07:51:06.075Z,611.90
2018-09-08T07:52:06.151Z,609.50
2018-09-08T07:53:06.296Z,630.50
2018-09-08T07:54:06.310Z,613.90
2018-09-08T07:55:06.243Z,617.90
2018-09-08T07:56:06.295Z,633.50
2018-09-08T07:57:06.390Z,635.70
2018-09-08T07:58:06.606Z,647.50
2018-09-08T07:59:06.401Z,630.90
2018-09-08T08:00:06.450Z,640.50
2018-09-08T08:01:06.492Z,638.00
2018-09-08T08:02:06.525Z,618.40
2018-09-08T08:03:06.584Z,652.40
2018-09-08T08:04:06.721Z,649.60
2018-09-08T08:05:06.632Z,648.90
2018-09-08T08:06:06.711Z,645.80
2018-09-08T08:07:06.736Z,671.50
2018-09-08T08:08:06.768Z,688.80
2018-09-08T08:09:06.825Z,663.90
2018-09-08T08:10:06.864Z,684.60
2018-09-08T08:11:06.887Z,683.20
2018-09-08T08:12:06.954Z,679.10
2018-09-08T08:13:06.980Z,685.70
2018-09-08T08:14:07.280Z,684.50
2018-09-08T08:15:07.072Z,679.20
2018-09-08T08:16:07.092Z,667.00
2018-09-08T08:17:07.116Z,699.40
2018-09-08T08:18:07.180Z,671.70
2018-09-08T08:19:07.472Z,682.10
2018-09-08T08:20:07.246Z,641.30
2018-09-08T08:21:07.287Z,682.10
2018-09-08T08:22:07.345Z,643.30
2018-09-08T08:23:07.448Z,687.50
2018-09-08T08:24:07.411Z,673.90
2018-09-08T08:25:07.694Z,655.30
2018-09-08T08:26:07.533Z,669.50
2018-09-08T08:27:07.508Z,681.50
2018-09-08T08:28:07.585Z,660.60
2018-09-08T08:29:07.616Z,675.50
2018-09-08T08:30:07.687Z,673.40
2018-09-08T08:31:07.979Z,655.30
2018-09-08T08:32:07.736Z,653.90
2018-09-08T08:33:07.788Z,675.70
2018-09-08T08:34:07.817Z,676.90
2018-09-08T08:35:07.859Z,680.10
2018-09-08T08:36:07.908Z,671.80
2018-09-08T08:37:08.259Z,687.50
2018-09-08T08:38:08.002Z,704.60
2018-09-08T08:39:08.019Z,669.50
2018-09-08T08:40:08.104Z,655.60
2018-09-08T08:41:08.096Z,675.10
2018-09-08T08:42:08.122Z,652.50
2018-09-08T08:43:08.491Z,665.30
2018-09-08T08:44:08.224Z,642.20
2018-09-08T08:45:08.313Z,667.30
2018-09-08T08:46:08.300Z,666.40
2018-09-08T08:47:08.342Z,656.80
2018-09-08T08:48:08.375Z,680.40
2018-09-08T08:49:08.668Z,690.10
2018-09-08T08:50:08.461Z,694.10
2018-09-08T08:51:08.498Z,677.40
2018-09-08T08:52:08.529Z,670.50
2018-09-08T08:53:08.576Z,702.70
2018-09-08T08:54:08.644Z,674.20
2018-09-08T08:55:08.895Z,668.30
2018-09-08T08:56:08.743Z,669.50
2018-09-08T08:57:08.718Z,671.00
2018-09-08T08:58:08.780Z,674.70
2018-09-08T08:59:08.833Z,680.20
2018-09-08T09:00:08.855Z,663.90
2018-09-08T09:01:09.144Z,656.50
2018-09-08T09:02:08.934Z,683.30
2018-09-08T09:03:08.999Z,672.20
2018-09-08T09:04:09.042Z,670.50
2018-09-08T09:05:09.098Z,656.60
2018-09-08T09:06:09.405Z,692.50
2018-09-08T09:07:09.148Z,660.90
2018-09-08T09:08:09.179Z,645.50
2018-09-08T09:09:09.287Z,652.10
2018-09-08T09:10:09.270Z,672.30
2018-09-08T09:11:09.316Z,689.20
2018-09-08T09:12:09.587Z,680.90
2018-09-08T09:13:09.449Z,684.30
2018-09-08T09:14:09.425Z,660.40
2018-09-08T09:15:09.863Z,658.80
2018-09-08T09:16:09.506Z,665.50
2018-09-08T09:17:09.539Z,657.00
2018-09-08T09:18:09.573Z,652.90
2018-09-08T09:19:09.880Z,657.20
2018-09-08T09:20:09.658Z,664.00
2018-09-08T09:21:09.710Z,672.50
2018-09-08T09:22:09.742Z,656.00
2018-09-08T09:23:09.790Z,670.30
2018-09-08T09:24:09.859Z,670.10
2018-09-08T09:25:09.868Z,641.80
2018-09-08T09:26:09.903Z,613.60
2018-09-08T09:27:09.942Z,605.10
2018-09-08T09:28:10.028Z,620.30
2018-09-08T09:29:10.084Z,621.80
2018-09-08T09:30:10.362Z,613.30
2018-09-08T09:31:10.110Z,614.80
2018-09-08T09:32:10.185Z,613.10
2018-09-08T09:33:10.241Z,594.00
2018-09-08T09:34:10.240Z,590.90
2018-09-08T09:35:10.286Z,600.90
2018-09-08T09:36:10.580Z,614.20
2018-09-08T09:37:10.436Z,625.20
2018-09-08T09:38:10.412Z,642.10
2018-09-08T09:39:10.431Z,636.70
2018-09-08T09:40:10.524Z,661.90
2018-09-08T09:41:10.810Z,686.60
2018-09-08T09:42:10.559Z,706.70
2018-09-08T09:43:10.609Z,711.90
2018-09-08T09:44:10.650Z,680.70
2018-09-08T09:45:10.666Z,693.70
2018-09-08T09:46:10.710Z,696.30
2018-09-08T09:47:10.763Z,693.80
2018-09-08T09:48:10.789Z,705.90
2018-09-08T09:49:10.842Z,706.00
2018-09-08T09:50:10.904Z,711.60
2018-09-08T09:51:10.961Z,708.50
2018-09-08T09:52:11.224Z,663.80
2018-09-08T09:53:11.076Z,680.50
2018-09-08T09:54:11.064Z,678.10
2018-09-08T09:55:11.095Z,684.70
2018-09-08T09:56:11.131Z,666.70
2018-09-08T09:57:11.183Z,639.80
2018-09-08T09:58:11.200Z,634.60
2018-09-08T09:59:11.490Z,642.70
2018-09-08T10:00:11.276Z,637.50
2018-09-08T10:01:11.488Z,620.00
2018-09-08T10:02:11.430Z,632.30
2018-09-08T10:03:11.406Z,634.10
2018-09-08T10:04:11.443Z,626.40
2018-09-08T10:05:11.762Z,629.20
2018-09-08T10:06:11.536Z,619.80
2018-09-08T10:07:11.595Z,621.70
2018-09-08T10:08:11.633Z,617.90
2018-09-08T10:09:11.682Z,600.00
2018-09-08T10:10:11.725Z,592.60
2018-09-08T10:11:12.055Z,599.10
2018-09-08T10:12:11.863Z,585.10
2018-09-08T10:13:11.844Z,555.90
2018-09-08T10:14:11.889Z,545.20
2018-09-08T10:15:11.937Z,511.20
2018-09-08T10:16:12.249Z,483.60
2018-09-08T10:17:11.997Z,457.80
2018-09-08T10:18:12.068Z,450.00
2018-09-08T10:19:12.157Z,370.70
2018-09-08T10:20:12.153Z,366.80
2018-09-08T10:21:12.198Z,327.10
2018-09-08T10:22:12.234Z,303.80
2018-09-08T10:23:12.467Z,298.90
2018-09-08T10:24:12.344Z,292.30
2018-09-08T10:25:12.378Z,274.40
2018-09-08T10:26:12.436Z,269.60
2018-09-08T10:27:12.735Z,271.30
2018-09-08T10:28:12.494Z,252.10
2018-09-08T10:29:12.587Z,231.50
2018-09-08T10:30:12.649Z,228.40
2018-09-08T10:31:12.648Z,230.40
2018-09-08T10:32:13.214Z,238.30
2018-09-08T10:33:12.777Z,243.80
2018-09-08T10:34:12.799Z,246.30
2018-09-08T10:35:12.895Z,254.10
2018-09-08T10:36:12.882Z,244.50
2018-09-08T10:37:13.240Z,247.70
2018-09-08T10:38:12.987Z,248.50
2018-09-08T10:39:13.026Z,262.00
2018-09-08T10:40:13.148Z,250.10
2018-09-08T10:41:13.114Z,251.10
2018-09-08T10:42:13.182Z,258.70
2018-09-08T10:43:13.191Z,250.90
2018-09-08T10:44:13.273Z,247.40
2018-09-08T10:45:13.307Z,227.30
2018-09-08T10:46:13.366Z,214.10
2018-09-08T10:47:13.420Z,232.20
2018-09-08T10:48:13.676Z,232.40
2018-09-08T10:49:13.532Z,237.30
2018-09-08T10:50:13.545Z,242.40
2018-09-08T10:51:13.594Z,259.60
2018-09-08T10:52:13.686Z,260.10
2018-09-08T10:53:13.677Z,268.60
2018-09-08T10:54:13.725Z,266.70
2018-09-08T10:55:14.080Z,252.40
2018-09-08T10:56:13.832Z,245.00
2018-09-08T10:57:13.867Z,239.60
2018-09-08T10:58:13.963Z,233.50
2018-09-08T10:59:13.980Z,227.90
2018-09-08T11:00:14.022Z,231.40
2018-09-08T11:01:14.314Z,228.80
2018-09-08T11:02:14.535Z,284.80
2018-09-08T11:03:14.203Z,219.20
2018-09-08T11:04:14.217Z,136.10
2018-09-08T11:05:14.252Z,145.70
2018-09-08T11:06:14.342Z,178.50
2018-09-08T11:07:14.356Z,210.90
2018-09-08T11:08:14.405Z,237.50
2018-09-08T11:09:14.443Z,241.30
2018-09-08T11:10:14.480Z,257.70
2018-09-08T11:11:14.783Z,262.20
2018-09-08T11:12:14.586Z,218.20
2018-09-08T11:13:14.642Z,211.90
2018-09-08T11:14:14.684Z,224.90
2018-09-08T11:15:14.703Z,192.40
2018-09-08T11:16:14.764Z,176.30
2018-09-08T11:17:15.075Z,216.10
2018-09-08T11:18:14.847Z,279.70
2018-09-08T11:19:14.898Z,207.70
2018-09-08T11:20:14.943Z,181.70
2018-09-08T11:21:14.990Z,187.50
2018-09-08T11:22:15.305Z,170.40
2018-09-08T11:23:15.106Z,286.40
2018-09-08T11:24:15.133Z,160.90
2018-09-08T11:25:15.181Z,180.90
2018-09-08T11:26:15.226Z,173.00
2018-09-08T11:27:15.278Z,175.90
2018-09-08T11:28:15.314Z,199.20
2018-09-08T11:29:15.389Z,191.70
2018-09-08T11:30:15.407Z,186.50
2018-09-08T11:31:15.477Z,203.00
2018-09-08T11:32:15.518Z,198.40
2018-09-08T11:33:15.829Z,215.40
2018-09-08T11:34:15.625Z,218.10
2018-09-08T11:35:15.651Z,244.90
2018-09-08T11:36:15.713Z,233.70
2018-09-08T11:37:15.749Z,250.20
2018-09-08T11:38:15.909Z,305.40
2018-09-08T11:39:15.835Z,315.90
2018-09-08T11:40:15.900Z,320.10
2018-09-08T11:41:15.930Z,388.20
2018-09-08T11:42:16.033Z,368.40
2018-09-08T11:43:16.035Z,347.50
2018-09-08T11:44:16.342Z,328.80
2018-09-08T11:45:16.129Z,293.00
2018-09-08T11:46:16.195Z,375.90
2018-09-08T11:47:16.213Z,375.70
2018-09-08T11:48:16.321Z,353.00
2018-09-08T11:49:16.334Z,292.50
2018-09-08T11:50:16.371Z,492.40
2018-09-08T11:51:16.679Z,270.70
2018-09-08T11:52:16.446Z,283.60
2018-09-08T11:53:16.516Z,246.80
2018-09-08T11:54:16.580Z,203.90
2018-09-08T11:55:16.628Z,201.60
2018-09-08T11:56:17.004Z,172.50
2018-09-08T11:57:16.730Z,312.50
2018-09-08T11:58:16.764Z,147.80
2018-09-08T11:59:16.825Z,180.80
2018-09-08T12:00:16.909Z,187.00
2018-09-08T12:01:16.923Z,205.60
2018-09-08T12:02:17.036Z,200.20
2018-09-08T12:03:17.337Z,218.90
2018-09-08T12:04:17.110Z,223.60
2018-09-08T12:05:17.139Z,218.80
2018-09-08T12:06:17.220Z,195.00
2018-09-08T12:07:17.235Z,212.00
2018-09-08T12:08:17.281Z,210.60
2018-09-08T12:09:17.587Z,193.30
2018-09-08T12:10:17.400Z,225.60
2018-09-08T12:11:17.487Z,194.00
2018-09-08T12:12:17.493Z,191.30
2018-09-08T12:13:17.526Z,194.70
2018-09-08T12:14:17.611Z,191.80
2018-09-08T12:15:17.941Z,206.20
2018-09-08T12:16:17.722Z,223.50
2018-09-08T12:17:17.741Z,206.60
2018-09-08T12:18:17.827Z,178.10
2018-09-08T12:19:17.854Z,192.20
2018-09-08T12:20:17.914Z,183.40
2018-09-08T12:21:18.216Z,193.20
2018-09-08T12:22:18.119Z,195.30
2018-09-08T12:23:18.087Z,197.50
2018-09-08T12:24:18.128Z,186.90
2018-09-08T12:25:18.184Z,198.20
2018-09-08T12:26:18.235Z,173.20
2018-09-08T12:27:18.533Z,172.90
2018-09-08T12:28:18.376Z,166.50
2018-09-08T12:29:18.395Z,147.20